Claresholm, Canada
Current Conditions -  °F | °C
As of 1:00 AM on Friday 28 Nov 2014 (Local Time) from CZPC Reporting Station
Moderate Fog Moderate Fog  
Wind Chill: 10°   Ceiling: 200
Heat Index: 19°   Visibility: 0.12mi
Dew Point: 19°   Wind: 7mph
Humidity: 100%   Direction: 100°E
Pressure: 29.55"   Gusts: NA
Location:  50.03°N, 113.58°W
Report Text: CZPC 280800Z AUTO 10006KT 1/8SM FZFG VV002 M07/M07 A2955 RMK ICG PRESFR SLP038
Loading
Personal Weather Stations






























Interactive Weather Map New forecast layout! Learn more

10-Day Weather Forecast

Advertisements
Track Severe Weather on mobile